Promontory, Utah
Current Conditions -  °F | °C
As of 6:53 PM on Tuesday 25 Nov 2014 (Local Time) from KOGD Reporting Station
Light Rain Light Rain  
Wind Chill:   Ceiling: 5000
Heat Index:   Visibility: 10mi
Dew Point:   Wind: 9mph
Humidity: 68%   Direction: 180°S
Pressure: 30.27"   Gusts: NA
Location:  41.5038°N, 112.48°W
Report Text: KOGD 260153Z AUTO 18008KT 10SM -RA BKN050 OVC065 07/01 A3027 RMK AO2 RAB0058 SLP247 P0000 T00670011 TSNO
Loading
Personal Weather Stations






























Interactive Weather Map New forecast layout! Learn more

10-Day Weather Forecast

Advertisements
Track Severe Weather on mobile